This is the latest recevied weather packets stored in our database for station/object XE2MEM-21. If no packets are shown the sender has not sent any weather packets the latest 10 day(s).
| Time | Temp. | Humidity | Pressure | Rain* | Wind** | Luminosity | Snow |
|---|---|---|---|---|---|---|---|
| 1778121754 | 31.67° C | 100% | 1005 hPa | - | - | - | - |
| 1778120854 | 32.22° C | 100% | 1004.7 hPa | - | - | - | - |
| 1778119954 | 32.78° C | 97% | 1004.3 hPa | - | - | - | - |
| 1778119054 | 32.78° C | 97% | 1004.1 hPa | - | - | - | - |
| 1778118154 | 32.78° C | 95% | 1003.8 hPa | - | - | - | - |
| 1778117254 | 33.33° C | 88% | 1003.4 hPa | - | - | - | - |
| 1778116354 | 33.89° C | 85% | 1003.1 hPa | - | - | - | - |
| 1778115454 | 35° C | 80% | 1002.7 hPa | - | - | - | - |
| 1778114554 | 35° C | 78% | 1002.4 hPa | - | - | - | - |
| 1778113653 | 36.67° C | 71% | 1002.1 hPa | - | - | - | - |
| 1778112753 | 36.11° C | 71% | 1001.8 hPa | - | - | - | - |
| 1778111853 | 36.67° C | 71% | 1001.7 hPa | - | - | - | - |
| 1778110953 | 36.67° C | 71% | 1001.6 hPa | - | - | - | - |
| 1778110053 | 37.78° C | 67% | 1001.5 hPa | - | - | - | - |
| 1778109153 | 37.22° C | 67% | 1001.4 hPa | - | - | - | - |
| 1778108253 | 37.78° C | 66% | 1001.2 hPa | - | - | - | - |
| 1778107353 | 37.78° C | 57% | 1001.1 hPa | - | - | - | - |
| 1778106453 | 38.33° C | 55% | 1001.2 hPa | - | - | - | - |
| 1778105553 | 38.33° C | 54% | 1001.2 hPa | - | - | - | - |
| 1778104653 | 38.33° C | 54% | 1001.3 hPa | - | - | - | - |
| 1778103753 | 38.33° C | 54% | 1001.4 hPa | - | - | - | - |
| 1778102853 | 38.33° C | 55% | 1001.4 hPa | - | - | - | - |
| 1778101952 | 39.44° C | 51% | 1001.6 hPa | - | - | - | - |
| 1778101052 | 38.89° C | 52% | 1001.6 hPa | - | - | - | - |
| 1778100152 | 40° C | 50% | 1001.8 hPa | - | - | - | - |
* Rain since midnight (hover to see other rain measurements)
** Current wind speed in m/s (hover to see current wind gust speed)